Time;durP1;ratioP1;P1;durP2;ratioP2;P2;SDS_P1;SDS_P2;PMS_P1;PMS_P2;Temp;Humidity;BMP_temperature;BMP_pressure;BME280_temperature;BME280_humidity;BME280_pressure;Samples;Min_cycle;Max_cycle;Signal;HPM_P1;HPM_P2
2021/12/02 00:01:01;;;;;;;0.93;0.70;;;;;;;;;;4988219;28;24431;-62
2021/12/02 00:03:26;;;;;;;0.80;0.70;;;;;;;;;;4988509;28;24540;-61
2021/12/02 00:05:52;;;;;;;0.82;0.70;;;;;;;;;;4982526;28;24947;-61
2021/12/02 00:08:17;;;;;;;0.60;0.50;;;;;;;;;;4981592;28;24788;-61
2021/12/02 00:10:42;;;;;;;0.90;0.70;;;;;;;;;;4980167;28;24471;-61
2021/12/02 00:13:09;;;;;;;0.70;0.70;;;;;;;;;;4986457;28;24515;-61
2021/12/02 00:15:48;;;;;;;0.90;0.60;;;;;;;;;;4981681;28;24541;-61
2021/12/02 00:23:34;;;;;;;0.80;0.80;;;;;;;;;;4989100;28;24409;-61
2021/12/02 00:26:00;;;;;;;1.15;0.70;;;;;;;;;;4984592;28;24951;-62
2021/12/02 00:28:27;;;;;;;1.10;1.00;;;;;;;;;;4995427;28;24568;-61
2021/12/02 00:30:56;;;;;;;0.93;0.90;;;;;;;;;;4979615;28;24424;-61
2021/12/02 00:33:23;;;;;;;1.20;0.80;;;;;;;;;;4984720;28;24768;-61
2021/12/02 00:35:49;;;;;;;2.30;0.98;;;;;;;;;;4982789;28;24576;-61
2021/12/02 00:38:14;;;;;;;0.90;0.90;;;;;;;;;;4984247;28;24523;-61
2021/12/02 00:40:40;;;;;;;0.73;0.73;;;;;;;;;;4982178;28;24437;-61
2021/12/02 00:43:05;;;;;;;1.13;0.80;;;;;;;;;;4979965;28;24406;-61
2021/12/02 00:45:31;;;;;;;0.87;0.87;;;;;;;;;;4981344;28;24428;-62
2021/12/02 00:47:57;;;;;;;0.65;0.65;;;;;;;;;;4981572;28;25037;-61
2021/12/02 00:50:22;;;;;;;0.90;0.80;;;;;;;;;;4983158;28;24452;-61
2021/12/02 00:52:49;;;;;;;1.47;0.90;;;;;;;;;;4998048;28;24567;-61
2021/12/02 00:55:15;;;;;;;1.80;0.90;;;;;;;;;;4985782;28;24788;-61
2021/12/02 00:57:40;;;;;;;1.40;0.90;;;;;;;;;;4987036;28;25359;-60
2021/12/02 01:00:06;;;;;;;1.10;1.10;;;;;;;;;;4985952;28;24413;-60
2021/12/02 01:02:32;;;;;;;1.30;1.00;;;;;;;;;;4986749;28;24413;-60
2021/12/02 01:04:58;;;;;;;1.60;1.00;;;;;;;;;;4991552;28;24416;-60
2021/12/02 01:07:23;;;;;;;1.15;1.08;;;;;;;;;;4982545;28;24983;-60
2021/12/02 01:09:49;;;;;;;1.00;0.90;;;;;;;;;;4992696;28;24421;-59
2021/12/02 01:12:15;;;;;;;1.73;1.20;;;;;;;;;;4986677;28;25265;-60
2021/12/02 01:14:42;;;;;;;1.40;1.10;;;;;;;;;;4986891;28;24486;-60
2021/12/02 01:17:07;;;;;;;1.30;1.10;;;;;;;;;;4983681;28;25187;-59
2021/12/02 01:19:32;;;;;;;1.30;1.10;;;;;;;;;;4982562;28;24435;-60
2021/12/02 01:22:00;;;;;;;1.80;1.00;;;;;;;;;;4996996;28;24472;-60
2021/12/02 01:24:26;;;;;;;1.20;1.10;;;;;;;;;;4986878;28;24415;-60
2021/12/02 01:26:53;;;;;;;2.80;1.08;;;;;;;;;;4985187;28;24456;-60
2021/12/02 01:29:19;;;;;;;2.67;1.10;;;;;;;;;;4984078;28;24444;-60
2021/12/02 01:31:47;;;;;;;1.40;1.30;;;;;;;;;;4986998;28;24505;-60
2021/12/02 01:34:13;;;;;;;1.10;1.00;;;;;;;;;;4985669;28;24500;-60
2021/12/02 01:36:39;;;;;;;2.33;1.00;;;;;;;;;;4985067;28;24514;-60
2021/12/02 01:39:05;;;;;;;2.53;1.20;;;;;;;;;;4986002;28;24409;-60
2021/12/02 01:41:35;;;;;;;2.03;1.10;;;;;;;;;;4983491;28;24416;-60
2021/12/02 01:44:00;;;;;;;2.38;1.00;;;;;;;;;;4989813;28;24508;-60
2021/12/02 01:46:25;;;;;;;1.58;1.10;;;;;;;;;;4994772;28;24504;-60
2021/12/02 01:49:00;;;;;;;2.00;1.10;;;;;;;;;;4986224;28;24479;-62
2021/12/02 01:51:26;;;;;;;1.30;1.20;;;;;;;;;;4979092;28;24436;-60
2021/12/02 01:53:57;;;;;;;2.13;1.08;;;;;;;;;;4990933;28;24435;-60
2021/12/02 01:56:23;;;;;;;3.85;1.20;;;;;;;;;;4980505;28;24440;-62
2021/12/02 01:58:49;;;;;;;1.60;1.00;;;;;;;;;;4985848;28;24491;-60
2021/12/02 02:01:20;;;;;;;2.30;1.10;;;;;;;;;;4989464;28;24428;-60
2021/12/02 02:03:46;;;;;;;2.92;1.00;;;;;;;;;;4985093;28;24416;-60
2021/12/02 02:06:12;;;;;;;1.35;1.08;;;;;;;;;;4984183;28;24466;-60
2021/12/02 02:08:41;;;;;;;1.60;1.17;;;;;;;;;;4986683;28;24498;-60
2021/12/02 02:11:08;;;;;;;1.58;1.10;;;;;;;;;;4983514;28;25019;-60
2021/12/02 02:13:34;;;;;;;1.67;1.10;;;;;;;;;;4982756;28;24990;-60
2021/12/02 02:15:59;;;;;;;2.00;1.10;;;;;;;;;;4987297;28;24437;-60
2021/12/02 02:18:24;;;;;;;1.87;1.20;;;;;;;;;;4993255;28;24413;-60
2021/12/02 02:23:19;;;;;;;2.17;1.27;;;;;;;;;;4986659;28;24420;-60
2021/12/02 02:25:46;;;;;;;2.00;1.20;;;;;;;;;;4983691;28;24508;-60
2021/12/02 02:28:11;;;;;;;1.95;1.17;;;;;;;;;;4981787;28;24431;-60
2021/12/02 02:30:37;;;;;;;1.23;1.13;;;;;;;;;;4984009;28;24405;-60
2021/12/02 02:33:02;;;;;;;2.40;1.20;;;;;;;;;;4990567;28;24516;-59
2021/12/02 02:35:27;;;;;;;1.10;1.00;;;;;;;;;;4996621;28;24547;-62
2021/12/02 02:37:53;;;;;;;1.53;1.20;;;;;;;;;;4980659;28;24437;-60
2021/12/02 02:40:18;;;;;;;2.83;1.37;;;;;;;;;;4984004;28;24389;-59
2021/12/02 02:42:45;;;;;;;1.93;1.33;;;;;;;;;;4987821;28;24409;-59
2021/12/02 02:45:10;;;;;;;1.30;1.20;;;;;;;;;;4993303;28;24460;-59
2021/12/02 02:47:36;;;;;;;4.67;1.60;;;;;;;;;;4983983;28;24453;-60
2021/12/02 02:50:01;;;;;;;2.40;1.47;;;;;;;;;;4986899;28;24452;-60
2021/12/02 02:52:26;;;;;;;1.20;1.10;;;;;;;;;;4978694;28;24491;-60
2021/12/02 02:54:52;;;;;;;4.30;1.60;;;;;;;;;;4988577;28;24802;-60
2021/12/02 02:57:19;;;;;;;1.95;1.30;;;;;;;;;;4984808;28;24484;-60
2021/12/02 03:02:33;;;;;;;3.70;1.40;;;;;;;;;;4985699;28;24471;-60
2021/12/02 03:05:17;;;;;;;2.00;1.30;;;;;;;;;;4983181;28;24413;-61
2021/12/02 03:07:46;;;;;;;3.60;1.20;;;;;;;;;;4982405;28;25038;-60
2021/12/02 03:10:31;;;;;;;1.10;1.00;;;;;;;;;;4984875;28;24428;-60
2021/12/02 03:13:13;;;;;;;2.78;1.20;;;;;;;;;;4980307;28;24435;-60
2021/12/02 03:18:22;;;;;;;2.83;1.33;;;;;;;;;;4980579;28;24437;-60
2021/12/02 03:20:47;;;;;;;1.10;1.00;;;;;;;;;;4982629;28;24867;-60
2021/12/02 03:23:13;;;;;;;2.20;1.30;;;;;;;;;;4984119;28;24423;-59
2021/12/02 03:25:38;;;;;;;1.90;1.30;;;;;;;;;;4983875;28;24504;-60
2021/12/02 03:28:04;;;;;;;2.20;1.23;;;;;;;;;;4989582;28;24451;-60
2021/12/02 03:30:29;;;;;;;2.03;1.30;;;;;;;;;;4993951;28;24413;-59
2021/12/02 03:32:54;;;;;;;2.60;1.30;;;;;;;;;;4980156;28;24520;-60
2021/12/02 03:35:19;;;;;;;3.58;1.33;;;;;;;;;;4984227;28;25183;-60
2021/12/02 03:37:44;;;;;;;1.80;1.20;;;;;;;;;;4986957;28;25004;-60
2021/12/02 03:40:11;;;;;;;1.90;1.30;;;;;;;;;;4984203;28;24444;-59
2021/12/02 03:42:36;;;;;;;1.33;1.10;;;;;;;;;;4979650;28;24508;-60
2021/12/02 03:45:02;;;;;;;2.60;1.38;;;;;;;;;;4980990;28;25209;-60
2021/12/02 03:47:27;;;;;;;2.10;1.40;;;;;;;;;;4983958;28;24982;-60
2021/12/02 03:49:52;;;;;;;2.20;1.50;;;;;;;;;;4988153;28;24416;-60
2021/12/02 03:52:17;;;;;;;2.10;1.33;;;;;;;;;;4990484;28;24424;-60
2021/12/02 03:54:42;;;;;;;1.75;1.20;;;;;;;;;;4984130;28;24443;-60
2021/12/02 03:57:08;;;;;;;1.75;1.33;;;;;;;;;;4979990;28;25264;-60
2021/12/02 03:59:33;;;;;;;3.58;1.30;;;;;;;;;;4991704;28;24412;-60
2021/12/02 04:01:59;;;;;;;2.03;1.50;;;;;;;;;;4984361;28;24502;-60
2021/12/02 04:04:24;;;;;;;2.50;1.70;;;;;;;;;;4984909;28;24512;-60
2021/12/02 04:06:49;;;;;;;2.20;1.65;;;;;;;;;;4982045;28;24432;-60
2021/12/02 04:09:19;;;;;;;3.63;1.40;;;;;;;;;;4989348;28;24431;-60
2021/12/02 04:12:02;;;;;;;1.95;1.23;;;;;;;;;;4983574;28;24815;-60
2021/12/02 04:14:53;;;;;;;2.38;1.50;;;;;;;;;;4983962;28;24417;-60
2021/12/02 04:17:18;;;;;;;1.70;1.30;;;;;;;;;;4982891;28;24997;-60
2021/12/02 04:19:43;;;;;;;2.55;1.33;;;;;;;;;;4980132;28;24459;-60
2021/12/02 04:22:08;;;;;;;2.00;1.30;;;;;;;;;;4980704;28;24472;-60
2021/12/02 04:24:33;;;;;;;2.03;1.40;;;;;;;;;;4983243;28;24418;-60
2021/12/02 04:26:58;;;;;;;3.27;1.53;;;;;;;;;;4985845;28;24409;-60
2021/12/02 04:29:24;;;;;;;2.50;1.50;;;;;;;;;;5000494;28;24431;-60
2021/12/02 04:31:49;;;;;;;2.25;1.50;;;;;;;;;;4994457;28;24424;-60
2021/12/02 04:34:15;;;;;;;4.20;1.43;;;;;;;;;;4975050;28;24923;-61
2021/12/02 04:36:40;;;;;;;2.33;1.50;;;;;;;;;;4980287;28;24424;-60
2021/12/02 04:39:06;;;;;;;2.07;1.40;;;;;;;;;;4982542;28;25355;-61
2021/12/02 04:41:31;;;;;;;2.77;1.60;;;;;;;;;;4991728;28;24513;-61
2021/12/02 04:43:56;;;;;;;2.10;1.60;;;;;;;;;;4981530;28;24783;-61
2021/12/02 04:46:21;;;;;;;2.30;1.43;;;;;;;;;;4981816;28;24784;-60
2021/12/02 04:48:47;;;;;;;2.00;1.40;;;;;;;;;;4982160;28;24978;-60
2021/12/02 04:51:12;;;;;;;3.00;1.50;;;;;;;;;;4980947;28;24423;-61
2021/12/02 04:53:37;;;;;;;3.40;1.60;;;;;;;;;;4999471;28;25041;-60
2021/12/02 04:56:02;;;;;;;3.10;1.50;;;;;;;;;;4994996;28;24795;-60
2021/12/02 04:58:28;;;;;;;2.50;1.70;;;;;;;;;;4983122;28;24487;-60
2021/12/02 05:00:54;;;;;;;1.73;1.50;;;;;;;;;;4980830;28;24421;-60
2021/12/02 05:03:19;;;;;;;2.27;1.70;;;;;;;;;;4981673;28;24444;-60
2021/12/02 05:05:44;;;;;;;1.92;1.58;;;;;;;;;;4982720;28;24420;-61
2021/12/02 05:08:09;;;;;;;2.27;1.63;;;;;;;;;;4977557;28;24532;-60
2021/12/02 05:10:34;;;;;;;2.35;1.40;;;;;;;;;;4983345;28;24424;-60
2021/12/02 05:12:59;;;;;;;2.47;1.60;;;;;;;;;;4979832;28;24532;-60
2021/12/02 05:15:25;;;;;;;2.10;1.37;;;;;;;;;;4985745;28;24421;-60
2021/12/02 05:17:50;;;;;;;3.70;1.50;;;;;;;;;;4983071;28;24571;-60
2021/12/02 05:20:16;;;;;;;2.73;1.47;;;;;;;;;;4984369;28;24589;-60
2021/12/02 05:22:41;;;;;;;2.90;1.60;;;;;;;;;;4978779;28;24491;-61
2021/12/02 05:25:07;;;;;;;2.60;1.37;;;;;;;;;;4982493;28;24424;-60
2021/12/02 05:27:32;;;;;;;3.92;1.50;;;;;;;;;;4982634;28;24520;-60
2021/12/02 05:29:58;;;;;;;2.13;1.30;;;;;;;;;;4990397;28;24859;-60
2021/12/02 05:32:23;;;;;;;3.20;1.50;;;;;;;;;;4980467;28;24417;-62
2021/12/02 05:34:49;;;;;;;1.93;1.40;;;;;;;;;;4985630;28;24428;-60
2021/12/02 05:37:15;;;;;;;2.53;1.50;;;;;;;;;;4986024;28;24567;-60
2021/12/02 05:39:40;;;;;;;3.37;1.53;;;;;;;;;;4997723;28;24969;-61
2021/12/02 05:42:06;;;;;;;1.97;1.40;;;;;;;;;;4987389;28;24444;-60
2021/12/02 05:44:31;;;;;;;2.28;1.52;;;;;;;;;;5000851;28;24515;-60
2021/12/02 05:46:56;;;;;;;3.30;1.57;;;;;;;;;;4988875;28;24416;-60
2021/12/02 05:49:21;;;;;;;3.60;1.80;;;;;;;;;;4994939;28;24554;-60
2021/12/02 05:51:47;;;;;;;3.40;1.73;;;;;;;;;;4985811;28;24471;-60
2021/12/02 05:54:12;;;;;;;2.30;1.67;;;;;;;;;;4992417;28;25034;-60
2021/12/02 05:56:37;;;;;;;3.30;1.70;;;;;;;;;;4984176;28;24448;-60
2021/12/02 05:59:03;;;;;;;2.00;1.40;;;;;;;;;;4981590;28;24479;-60
2021/12/02 06:01:28;;;;;;;2.90;1.40;;;;;;;;;;4987332;28;24415;-60
2021/12/02 06:03:53;;;;;;;2.10;1.50;;;;;;;;;;4985526;28;25089;-60
2021/12/02 06:06:19;;;;;;;2.73;1.40;;;;;;;;;;4983436;28;25033;-60
2021/12/02 06:08:44;;;;;;;3.30;1.90;;;;;;;;;;4984539;28;24417;-60
2021/12/02 06:11:09;;;;;;;1.98;1.50;;;;;;;;;;4997851;28;24499;-60
2021/12/02 06:13:34;;;;;;;3.23;1.80;;;;;;;;;;4997493;28;24436;-60
2021/12/02 06:15:59;;;;;;;3.30;1.60;;;;;;;;;;4989934;28;24558;-60
2021/12/02 06:18:25;;;;;;;2.10;1.30;;;;;;;;;;4994863;28;24429;-60
2021/12/02 06:20:56;;;;;;;2.03;1.40;;;;;;;;;;4982440;28;24474;-61
2021/12/02 06:23:22;;;;;;;3.20;1.63;;;;;;;;;;4990173;28;24430;-60
2021/12/02 06:25:48;;;;;;;2.67;1.70;;;;;;;;;;4989429;28;24428;-60
2021/12/02 06:28:13;;;;;;;3.50;2.00;;;;;;;;;;4995621;28;25256;-60
2021/12/02 06:30:38;;;;;;;2.33;1.23;;;;;;;;;;4989486;28;24512;-60
2021/12/02 06:33:04;;;;;;;1.70;1.43;;;;;;;;;;5000672;28;24425;-60
2021/12/02 06:35:29;;;;;;;2.30;1.30;;;;;;;;;;4991950;28;24507;-60
2021/12/02 06:37:54;;;;;;;1.63;1.53;;;;;;;;;;4993814;28;25125;-60
2021/12/02 06:40:19;;;;;;;2.63;1.37;;;;;;;;;;4983091;28;24413;-60
2021/12/02 06:42:45;;;;;;;3.10;1.50;;;;;;;;;;4980637;28;24420;-60
2021/12/02 06:45:10;;;;;;;3.90;1.50;;;;;;;;;;4981131;28;24512;-60
2021/12/02 06:47:39;;;;;;;1.57;1.13;;;;;;;;;;4984636;28;24432;-60
2021/12/02 06:50:05;;;;;;;3.20;1.50;;;;;;;;;;4988091;28;24969;-60
2021/12/02 06:52:32;;;;;;;2.03;1.20;;;;;;;;;;4985475;28;24499;-60
2021/12/02 06:54:57;;;;;;;3.40;1.60;;;;;;;;;;4984944;28;24835;-60
2021/12/02 06:57:22;;;;;;;2.83;1.40;;;;;;;;;;4990011;28;24503;-60
2021/12/02 06:59:48;;;;;;;3.15;1.30;;;;;;;;;;4990098;28;24513;-60
2021/12/02 07:02:13;;;;;;;2.90;1.40;;;;;;;;;;4982926;28;24825;-60
2021/12/02 07:04:38;;;;;;;2.17;1.47;;;;;;;;;;4996483;28;24567;-60
2021/12/02 07:07:03;;;;;;;6.43;1.42;;;;;;;;;;4991751;28;24491;-60
2021/12/02 07:09:29;;;;;;;3.03;1.60;;;;;;;;;;4983211;28;25401;-60
2021/12/02 07:11:54;;;;;;;2.80;1.30;;;;;;;;;;4988558;28;24483;-60
2021/12/02 07:14:20;;;;;;;1.93;1.30;;;;;;;;;;4988504;28;24417;-60
2021/12/02 07:16:46;;;;;;;2.30;1.13;;;;;;;;;;4998934;28;24439;-60
2021/12/02 07:19:12;;;;;;;3.87;1.80;;;;;;;;;;4984859;28;24451;-60
2021/12/02 07:21:39;;;;;;;3.50;1.50;;;;;;;;;;4992769;28;24509;-60
2021/12/02 07:24:04;;;;;;;2.05;1.45;;;;;;;;;;4988920;28;24495;-60
2021/12/02 07:26:32;;;;;;;3.00;1.60;;;;;;;;;;5002796;28;24420;-60
2021/12/02 07:28:57;;;;;;;2.80;1.60;;;;;;;;;;4991727;28;24517;-59
2021/12/02 07:31:23;;;;;;;2.55;1.50;;;;;;;;;;4979532;28;25322;-60
2021/12/02 07:33:52;;;;;;;3.23;1.60;;;;;;;;;;4987351;28;24503;-60
2021/12/02 07:36:18;;;;;;;2.25;1.40;;;;;;;;;;4992286;28;24982;-60
2021/12/02 07:38:44;;;;;;;4.55;1.70;;;;;;;;;;4994610;28;25309;-60
2021/12/02 07:41:09;;;;;;;1.50;1.40;;;;;;;;;;4983224;28;24854;-60
2021/12/02 07:43:36;;;;;;;2.38;1.42;;;;;;;;;;4981719;28;24768;-60
2021/12/02 07:46:03;;;;;;;3.30;1.58;;;;;;;;;;4986463;28;24412;-59
2021/12/02 07:48:28;;;;;;;1.70;1.52;;;;;;;;;;4986104;28;24834;-59
2021/12/02 07:50:54;;;;;;;3.63;1.47;;;;;;;;;;5002060;28;24986;-59
2021/12/02 07:53:20;;;;;;;2.30;1.80;;;;;;;;;;4981025;28;24427;-59
2021/12/02 07:55:46;;;;;;;2.67;1.60;;;;;;;;;;4991668;28;24443;-59
2021/12/02 07:58:11;;;;;;;3.10;1.60;;;;;;;;;;4984366;28;25043;-59
2021/12/02 08:00:37;;;;;;;3.43;1.80;;;;;;;;;;4993764;28;24467;-59
2021/12/02 08:03:06;;;;;;;4.75;1.85;;;;;;;;;;4981812;28;24413;-59
2021/12/02 08:05:31;;;;;;;2.95;1.70;;;;;;;;;;4981384;28;24788;-60
2021/12/02 08:07:56;;;;;;;2.73;1.90;;;;;;;;;;4988006;28;24894;-59
2021/12/02 08:10:22;;;;;;;3.22;1.67;;;;;;;;;;5000639;28;24411;-59
2021/12/02 08:12:48;;;;;;;3.15;1.80;;;;;;;;;;4993318;28;24449;-60
2021/12/02 08:15:14;;;;;;;4.88;2.08;;;;;;;;;;4980064;28;24705;-59
2021/12/02 08:17:39;;;;;;;3.00;1.90;;;;;;;;;;4979819;28;25116;-60
2021/12/02 08:20:04;;;;;;;2.50;1.80;;;;;;;;;;4987603;28;24551;-60
2021/12/02 08:22:31;;;;;;;2.70;1.73;;;;;;;;;;4984046;28;24413;-60
2021/12/02 08:24:56;;;;;;;3.60;2.00;;;;;;;;;;4985323;28;24424;-59
2021/12/02 08:27:22;;;;;;;2.40;1.50;;;;;;;;;;4985721;28;24421;-60
2021/12/02 08:29:47;;;;;;;2.70;1.50;;;;;;;;;;4985190;28;25281;-60
2021/12/02 08:32:13;;;;;;;2.80;1.60;;;;;;;;;;4986639;28;25058;-60
2021/12/02 08:34:39;;;;;;;4.13;1.75;;;;;;;;;;4988960;28;24424;-62
2021/12/02 08:37:05;;;;;;;6.13;1.70;;;;;;;;;;4981879;28;24432;-59
2021/12/02 08:39:31;;;;;;;4.27;1.80;;;;;;;;;;4986254;28;24851;-59
2021/12/02 08:41:57;;;;;;;3.55;2.17;;;;;;;;;;4981475;28;24424;-61
2021/12/02 08:44:23;;;;;;;5.22;1.73;;;;;;;;;;4983031;28;24829;-62
2021/12/02 08:46:50;;;;;;;2.33;1.63;;;;;;;;;;4981712;28;24493;-62
2021/12/02 08:49:15;;;;;;;4.28;1.40;;;;;;;;;;4979658;28;24467;-60
2021/12/02 08:51:41;;;;;;;3.35;1.90;;;;;;;;;;4980947;28;25032;-60
2021/12/02 08:54:07;;;;;;;2.75;1.58;;;;;;;;;;4982917;28;24396;-60
2021/12/02 08:56:32;;;;;;;3.43;1.60;;;;;;;;;;4982853;28;24448;-60
2021/12/02 08:58:59;;;;;;;3.25;1.50;;;;;;;;;;4981761;28;24411;-59
2021/12/02 09:01:25;;;;;;;3.27;1.60;;;;;;;;;;4981267;28;24428;-60
2021/12/02 09:03:50;;;;;;;1.90;1.40;;;;;;;;;;4981923;28;24408;-60
2021/12/02 09:06:21;;;;;;;4.10;1.63;;;;;;;;;;4981668;28;24405;-59
2021/12/02 09:08:46;;;;;;;3.35;1.40;;;;;;;;;;4981576;28;24392;-59
2021/12/02 09:11:11;;;;;;;4.80;1.50;;;;;;;;;;4980615;28;24908;-60
2021/12/02 09:13:36;;;;;;;2.42;1.50;;;;;;;;;;4983529;28;24456;-59
2021/12/02 09:16:01;;;;;;;3.95;1.67;;;;;;;;;;4985924;28;24416;-60
2021/12/02 09:18:26;;;;;;;2.60;1.70;;;;;;;;;;4987183;28;24476;-60
2021/12/02 09:20:52;;;;;;;2.47;1.73;;;;;;;;;;4985617;28;24456;-60
2021/12/02 09:23:17;;;;;;;6.37;1.80;;;;;;;;;;4988306;28;24501;-60
2021/12/02 09:25:42;;;;;;;3.55;1.50;;;;;;;;;;5004784;28;24968;-60
2021/12/02 09:28:08;;;;;;;2.67;1.20;;;;;;;;;;4986918;28;25045;-60
2021/12/02 09:30:33;;;;;;;4.23;1.73;;;;;;;;;;4985001;28;24490;-60
2021/12/02 09:32:59;;;;;;;2.40;1.67;;;;;;;;;;4987189;28;24420;-60
2021/12/02 09:35:24;;;;;;;2.90;1.70;;;;;;;;;;4985930;28;24452;-60
2021/12/02 09:37:50;;;;;;;2.87;1.67;;;;;;;;;;4984689;28;24413;-60
2021/12/02 09:40:15;;;;;;;3.20;1.70;;;;;;;;;;4988635;28;24491;-60
2021/12/02 09:42:41;;;;;;;4.30;1.80;;;;;;;;;;4982452;28;24479;-60
2021/12/02 09:45:07;;;;;;;3.17;1.60;;;;;;;;;;4981802;28;24519;-60
2021/12/02 09:47:33;;;;;;;4.20;1.60;;;;;;;;;;4983882;28;24444;-61
2021/12/02 09:50:03;;;;;;;2.97;1.70;;;;;;;;;;4989234;28;24999;-60
2021/12/02 09:52:33;;;;;;;3.92;1.67;;;;;;;;;;4984725;28;24479;-60
2021/12/02 09:55:06;;;;;;;2.95;1.45;;;;;;;;;;4982705;28;24421;-60
2021/12/02 09:57:36;;;;;;;3.80;1.40;;;;;;;;;;4986235;28;24523;-60
2021/12/02 10:00:02;;;;;;;4.07;1.40;;;;;;;;;;4985488;28;24424;-60
2021/12/02 10:02:28;;;;;;;4.18;1.70;;;;;;;;;;4987336;28;24418;-60
2021/12/02 10:05:02;;;;;;;2.90;1.40;;;;;;;;;;4980262;28;24428;-60
2021/12/02 10:07:37;;;;;;;2.53;1.70;;;;;;;;;;4989012;28;24475;-60
2021/12/02 10:10:14;;;;;;;3.40;1.58;;;;;;;;;;4995530;28;24439;-60
2021/12/02 10:12:49;;;;;;;2.97;1.60;;;;;;;;;;4984951;28;24433;-61
2021/12/02 10:15:16;;;;;;;4.82;1.67;;;;;;;;;;4994600;28;24499;-60
2021/12/02 10:17:52;;;;;;;2.22;1.50;;;;;;;;;;4980957;28;24468;-60
2021/12/02 10:20:25;;;;;;;3.27;1.60;;;;;;;;;;4980137;28;24425;-60
2021/12/02 10:23:09;;;;;;;3.50;1.42;;;;;;;;;;4982460;28;24479;-60
2021/12/02 10:25:35;;;;;;;2.07;1.40;;;;;;;;;;4984074;28;24605;-61
2021/12/02 10:28:01;;;;;;;6.17;1.50;;;;;;;;;;4982692;28;24420;-61
2021/12/02 10:30:26;;;;;;;3.00;1.60;;;;;;;;;;4982094;28;24882;-61
2021/12/02 10:32:52;;;;;;;3.22;1.50;;;;;;;;;;4985761;28;24432;-61
2021/12/02 10:35:18;;;;;;;3.60;1.40;;;;;;;;;;4983532;28;26489;-61
2021/12/02 10:37:43;;;;;;;4.97;1.60;;;;;;;;;;4991305;28;24779;-61
2021/12/02 10:40:08;;;;;;;3.17;1.60;;;;;;;;;;4982632;28;24431;-61
2021/12/02 10:42:35;;;;;;;4.90;1.40;;;;;;;;;;4987770;28;24720;-61
2021/12/02 10:45:02;;;;;;;1.93;1.40;;;;;;;;;;4991864;28;24815;-61
2021/12/02 10:47:28;;;;;;;3.00;1.40;;;;;;;;;;4986783;28;24467;-62
2021/12/02 10:49:55;;;;;;;3.70;1.65;;;;;;;;;;4976950;28;24432;-61
2021/12/02 10:52:22;;;;;;;3.25;1.50;;;;;;;;;;4982166;28;24784;-61
2021/12/02 10:54:49;;;;;;;2.70;1.58;;;;;;;;;;4985385;28;24424;-61
2021/12/02 10:57:17;;;;;;;3.95;1.30;;;;;;;;;;4984305;28;24433;-61
2021/12/02 10:59:44;;;;;;;3.75;1.70;;;;;;;;;;4968468;28;24471;-61
2021/12/02 11:02:19;;;;;;;2.22;1.40;;;;;;;;;;4985517;28;24431;-61
2021/12/02 11:04:46;;;;;;;3.80;1.90;;;;;;;;;;4980706;28;24499;-59
2021/12/02 11:07:18;;;;;;;2.10;1.30;;;;;;;;;;4980523;28;24413;-62
2021/12/02 11:09:44;;;;;;;3.90;1.60;;;;;;;;;;4981697;28;25001;-59
2021/12/02 11:12:14;;;;;;;3.07;1.33;;;;;;;;;;4983971;28;24435;-59
2021/12/02 11:15:03;;;;;;;3.83;1.40;;;;;;;;;;4978627;28;25065;-60
2021/12/02 11:17:30;;;;;;;3.22;1.50;;;;;;;;;;4975459;28;24440;-60
2021/12/02 11:19:56;;;;;;;3.55;1.65;;;;;;;;;;4982558;28;24425;-60
2021/12/02 11:22:22;;;;;;;3.67;1.50;;;;;;;;;;4980732;28;24417;-60
2021/12/02 11:24:48;;;;;;;2.53;1.80;;;;;;;;;;4978814;28;24504;-60
2021/12/02 11:27:15;;;;;;;1.90;1.40;;;;;;;;;;4981637;28;24501;-60
2021/12/02 11:29:59;;;;;;;4.25;1.83;;;;;;;;;;4980382;28;25127;-61
2021/12/02 11:32:27;;;;;;;5.75;1.80;;;;;;;;;;4982052;28;24495;-60
2021/12/02 11:34:58;;;;;;;4.50;1.40;;;;;;;;;;4982251;28;24764;-60
2021/12/02 11:37:24;;;;;;;4.45;1.80;;;;;;;;;;4981419;28;24417;-60
2021/12/02 11:39:50;;;;;;;6.50;1.83;;;;;;;;;;4978267;28;25053;-60
2021/12/02 11:42:15;;;;;;;2.83;1.27;;;;;;;;;;4981156;28;24416;-60
2021/12/02 11:44:40;;;;;;;4.30;1.30;;;;;;;;;;4982165;28;24507;-60
2021/12/02 11:47:06;;;;;;;5.05;1.98;;;;;;;;;;4983996;28;24447;-60
2021/12/02 11:49:31;;;;;;;3.20;1.30;;;;;;;;;;4983912;28;24401;-59
2021/12/02 11:51:56;;;;;;;3.30;1.60;;;;;;;;;;4978617;28;24852;-60
2021/12/02 11:54:21;;;;;;;3.03;1.50;;;;;;;;;;4978603;28;24536;-61
2021/12/02 11:56:46;;;;;;;3.60;1.30;;;;;;;;;;4981381;28;25025;-61
2021/12/02 11:59:12;;;;;;;2.77;1.30;;;;;;;;;;4983451;28;24461;-61
2021/12/02 12:01:39;;;;;;;3.60;1.97;;;;;;;;;;4980680;28;24433;-61
2021/12/02 12:04:11;;;;;;;3.05;1.70;;;;;;;;;;4980122;28;24436;-62
2021/12/02 12:06:49;;;;;;;3.05;1.67;;;;;;;;;;4978449;28;24787;-61
2021/12/02 12:09:20;;;;;;;4.97;2.47;;;;;;;;;;4980611;28;24916;-59
2021/12/02 12:11:46;;;;;;;3.80;2.85;;;;;;;;;;4981418;28;24516;-60
2021/12/02 12:14:13;;;;;;;4.35;2.28;;;;;;;;;;4982666;28;24559;-61
2021/12/02 12:16:42;;;;;;;4.55;1.70;;;;;;;;;;4980606;28;24429;-60
2021/12/02 12:19:25;;;;;;;3.50;1.73;;;;;;;;;;4980221;28;24823;-61
2021/12/02 12:21:55;;;;;;;3.53;1.50;;;;;;;;;;4979670;28;24417;-61
2021/12/02 12:24:37;;;;;;;5.07;1.80;;;;;;;;;;4979924;28;24460;-61
2021/12/02 12:27:10;;;;;;;2.47;1.45;;;;;;;;;;4976937;28;24567;-61
2021/12/02 12:29:35;;;;;;;2.80;1.50;;;;;;;;;;4978799;28;24526;-61
2021/12/02 12:32:15;;;;;;;2.65;1.70;;;;;;;;;;4979127;28;24780;-60
2021/12/02 12:37:12;;;;;;;1.75;1.40;;;;;;;;;;4968655;28;24426;-61
2021/12/02 12:39:38;;;;;;;2.30;1.40;;;;;;;;;;4979295;28;24787;-60
2021/12/02 12:42:10;;;;;;;2.73;1.50;;;;;;;;;;4980440;28;24431;-61
2021/12/02 12:44:52;;;;;;;5.65;1.90;;;;;;;;;;4977285;28;24895;-61
2021/12/02 12:47:19;;;;;;;2.35;1.40;;;;;;;;;;4975850;28;24429;-61
2021/12/02 12:49:47;;;;;;;2.80;1.40;;;;;;;;;;4978035;28;25057;-61
2021/12/02 12:52:16;;;;;;;2.53;1.70;;;;;;;;;;4979717;28;24512;-61
2021/12/02 12:54:41;;;;;;;2.40;1.50;;;;;;;;;;4978813;28;24812;-61
2021/12/02 12:57:07;;;;;;;2.20;1.53;;;;;;;;;;4976178;28;25053;-60
2021/12/02 12:59:49;;;;;;;4.63;2.00;;;;;;;;;;4976884;28;24504;-61
2021/12/02 13:02:16;;;;;;;3.67;1.67;;;;;;;;;;4979092;28;25041;-61
2021/12/02 13:04:51;;;;;;;4.68;1.70;;;;;;;;;;4976144;28;24903;-62
2021/12/02 13:07:17;;;;;;;2.70;1.50;;;;;;;;;;4977866;28;24796;-60
2021/12/02 13:09:49;;;;;;;5.30;1.80;;;;;;;;;;4976865;28;24475;-60
2021/12/02 13:12:18;;;;;;;2.10;1.60;;;;;;;;;;4979640;28;24476;-60
2021/12/02 13:14:44;;;;;;;4.47;1.73;;;;;;;;;;4977362;28;24493;-60
2021/12/02 13:17:28;;;;;;;6.78;2.10;;;;;;;;;;4977904;28;24986;-60
2021/12/02 13:19:58;;;;;;;3.42;2.10;;;;;;;;;;4971745;28;24437;-60
2021/12/02 13:22:23;;;;;;;3.73;1.80;;;;;;;;;;4979763;28;24541;-60
2021/12/02 13:24:48;;;;;;;2.97;1.70;;;;;;;;;;4977464;28;25029;-60
2021/12/02 13:27:13;;;;;;;2.83;2.17;;;;;;;;;;4976484;28;24576;-60
2021/12/02 13:29:38;;;;;;;3.78;2.20;;;;;;;;;;4974572;28;24603;-60
2021/12/02 13:32:06;;;;;;;4.10;2.00;;;;;;;;;;4980034;28;24416;-60
2021/12/02 13:34:33;;;;;;;3.60;2.00;;;;;;;;;;4978636;28;24416;-60
2021/12/02 13:37:05;;;;;;;3.70;2.10;;;;;;;;;;4976040;28;24429;-60
2021/12/02 13:39:30;;;;;;;5.15;1.90;;;;;;;;;;4977154;28;24424;-60
2021/12/02 13:42:02;;;;;;;3.97;2.00;;;;;;;;;;4978545;28;24495;-60
2021/12/02 13:44:35;;;;;;;4.00;2.10;;;;;;;;;;4978750;28;24421;-60
2021/12/02 13:47:28;;;;;;;4.10;2.03;;;;;;;;;;4977640;28;24571;-60
2021/12/02 13:49:55;;;;;;;4.83;2.30;;;;;;;;;;4974455;28;24424;-60
2021/12/02 13:52:27;;;;;;;2.53;2.20;;;;;;;;;;4979581;28;24501;-60
2021/12/02 13:55:07;;;;;;;3.33;2.40;;;;;;;;;;4977947;28;24425;-60
2021/12/02 13:57:37;;;;;;;2.03;1.83;;;;;;;;;;4977828;28;24847;-61
2021/12/02 14:00:07;;;;;;;3.95;2.35;;;;;;;;;;4980262;28;24424;-61
2021/12/02 14:02:33;;;;;;;3.38;2.33;;;;;;;;;;4983026;28;24495;-61
2021/12/02 14:04:58;;;;;;;4.88;2.42;;;;;;;;;;4980338;28;24511;-61
2021/12/02 14:07:25;;;;;;;3.67;2.20;;;;;;;;;;4980431;28;24433;-60
2021/12/02 14:09:51;;;;;;;5.30;2.30;;;;;;;;;;4981144;28;25037;-60
2021/12/02 14:12:18;;;;;;;3.28;2.38;;;;;;;;;;4980442;28;24472;-60
2021/12/02 14:15:00;;;;;;;3.78;2.63;;;;;;;;;;4981945;28;25466;-60
2021/12/02 14:17:25;;;;;;;5.00;2.58;;;;;;;;;;4985852;28;24451;-60
2021/12/02 14:19:57;;;;;;;2.50;2.00;;;;;;;;;;4983507;28;25404;-61
2021/12/02 14:22:22;;;;;;;4.93;2.60;;;;;;;;;;4981567;28;24421;-60
2021/12/02 14:24:48;;;;;;;4.88;2.70;;;;;;;;;;4980142;28;24476;-60
2021/12/02 14:27:16;;;;;;;8.10;2.75;;;;;;;;;;4982361;28;24413;-60
2021/12/02 14:29:41;;;;;;;5.85;2.50;;;;;;;;;;4988986;28;25126;-59
2021/12/02 14:32:09;;;;;;;4.20;2.30;;;;;;;;;;4988932;28;24608;-59
2021/12/02 14:34:35;;;;;;;5.15;3.75;;;;;;;;;;4985684;28;24448;-59
2021/12/02 14:37:00;;;;;;;4.37;2.60;;;;;;;;;;4980888;28;24467;-59
2021/12/02 14:39:25;;;;;;;4.18;2.85;;;;;;;;;;4981878;28;24512;-59
2021/12/02 14:41:51;;;;;;;5.53;2.40;;;;;;;;;;4983166;28;24409;-59
2021/12/02 14:44:18;;;;;;;3.72;2.80;;;;;;;;;;4984112;28;25033;-59
2021/12/02 14:46:44;;;;;;;6.47;3.30;;;;;;;;;;4982093;28;24527;-59
2021/12/02 14:49:12;;;;;;;4.03;2.70;;;;;;;;;;4983835;28;24429;-59
2021/12/02 14:51:43;;;;;;;4.50;2.65;;;;;;;;;;4985203;28;24524;-59
2021/12/02 14:54:09;;;;;;;4.53;2.50;;;;;;;;;;4987348;28;24503;-59
2021/12/02 14:56:35;;;;;;;2.60;2.40;;;;;;;;;;4985413;28;24995;-59
2021/12/02 14:59:19;;;;;;;3.75;2.60;;;;;;;;;;4983479;28;25293;-59